Pauline, Nebraska
Current Conditions -  °F | °C
As of 3:04 PM on Wednesday 26 Nov 2014 (Local Time) from KHSI Reporting Station
Scattered Clouds Scattered Clouds  
Wind Chill: 19°   Ceiling: Unl
Heat Index: 31°   Visibility: 10mi
Dew Point: 19°   Wind: 20mph
Humidity: 61%   Direction: 350°N
Pressure: 30.28"   Gusts: NA
Location:  40.4809°N, 98.2217°W
Report Text: KHSI 262104Z AUTO 35017KT 10SM SCT023 M01/M07 A3028 RMK AO2 T10061072
Loading
Personal Weather Stations






























Interactive Weather Map New forecast layout! Learn more

10-Day Weather Forecast

Advertisements
Track Severe Weather on mobile